sensor_id;sensor_type;location;lat;lon;timestamp;P1;durP1;ratioP1;P2;durP2;ratioP2
65871;SDS011;52653;50.080;21.992;2023-12-20T00:02:27;39.00;;;26.60;;
65871;SDS011;52653;50.080;21.992;2023-12-20T00:05:21;39.10;;;26.50;;
65871;SDS011;52653;50.080;21.992;2023-12-20T00:08:14;39.20;;;27.10;;
65871;SDS011;52653;50.080;21.992;2023-12-20T00:11:08;39.30;;;27.30;;
65871;SDS011;52653;50.080;21.992;2023-12-20T00:14:05;41.80;;;26.80;;
65871;SDS011;52653;50.080;21.992;2023-12-20T00:16:58;36.80;;;25.70;;
65871;SDS011;52653;50.080;21.992;2023-12-20T00:19:51;38.40;;;26.30;;
65871;SDS011;52653;50.080;21.992;2023-12-20T00:22:45;36.50;;;25.60;;
65871;SDS011;52653;50.080;21.992;2023-12-20T00:25:38;37.20;;;27.10;;
65871;SDS011;52653;50.080;21.992;2023-12-20T00:28:32;38.00;;;26.00;;
65871;SDS011;52653;50.080;21.992;2023-12-20T00:31:27;35.30;;;24.90;;
65871;SDS011;52653;50.080;21.992;2023-12-20T00:34:21;39.50;;;26.50;;
65871;SDS011;52653;50.080;21.992;2023-12-20T00:37:14;34.80;;;24.80;;
65871;SDS011;52653;50.080;21.992;2023-12-20T00:40:10;33.80;;;23.70;;
65871;SDS011;52653;50.080;21.992;2023-12-20T00:45:57;36.90;;;24.40;;
65871;SDS011;52653;50.080;21.992;2023-12-20T00:48:52;34.50;;;24.20;;
65871;SDS011;52653;50.080;21.992;2023-12-20T00:51:46;34.30;;;24.00;;
65871;SDS011;52653;50.080;21.992;2023-12-20T00:54:40;36.90;;;24.80;;
65871;SDS011;52653;50.080;21.992;2023-12-20T00:57:34;35.80;;;24.10;;
65871;SDS011;52653;50.080;21.992;2023-12-20T01:00:27;35.00;;;23.60;;
65871;SDS011;52653;50.080;21.992;2023-12-20T01:03:23;31.80;;;22.90;;
65871;SDS011;52653;50.080;21.992;2023-12-20T01:06:17;34.10;;;23.80;;
65871;SDS011;52653;50.080;21.992;2023-12-20T01:09:10;34.90;;;23.90;;
65871;SDS011;52653;50.080;21.992;2023-12-20T01:12:04;31.80;;;23.10;;
65871;SDS011;52653;50.080;21.992;2023-12-20T01:14:58;33.20;;;22.40;;
65871;SDS011;52653;50.080;21.992;2023-12-20T01:17:51;34.50;;;23.20;;
65871;SDS011;52653;50.080;21.992;2023-12-20T01:20:50;33.40;;;22.50;;
65871;SDS011;52653;50.080;21.992;2023-12-20T01:23:43;32.70;;;22.30;;
65871;SDS011;52653;50.080;21.992;2023-12-20T01:26:36;32.10;;;22.60;;
65871;SDS011;52653;50.080;21.992;2023-12-20T01:29:29;32.70;;;22.80;;
65871;SDS011;52653;50.080;21.992;2023-12-20T01:32:25;31.80;;;22.00;;
65871;SDS011;52653;50.080;21.992;2023-12-20T01:35:18;32.70;;;22.20;;
65871;SDS011;52653;50.080;21.992;2023-12-20T01:38:11;32.50;;;23.10;;
65871;SDS011;52653;50.080;21.992;2023-12-20T01:41:04;33.10;;;23.10;;
65871;SDS011;52653;50.080;21.992;2023-12-20T01:44:18;34.00;;;23.00;;
65871;SDS011;52653;50.080;21.992;2023-12-20T01:47:12;33.50;;;22.70;;
65871;SDS011;52653;50.080;21.992;2023-12-20T01:50:07;32.00;;;22.50;;
65871;SDS011;52653;50.080;21.992;2023-12-20T01:53:00;32.70;;;22.20;;
65871;SDS011;52653;50.080;21.992;2023-12-20T01:55:55;32.40;;;22.20;;
65871;SDS011;52653;50.080;21.992;2023-12-20T01:58:49;33.30;;;22.50;;
65871;SDS011;52653;50.080;21.992;2023-12-20T02:01:42;32.00;;;21.20;;
65871;SDS011;52653;50.080;21.992;2023-12-20T02:05:49;31.80;;;21.20;;
65871;SDS011;52653;50.080;21.992;2023-12-20T02:08:43;30.40;;;21.50;;
65871;SDS011;52653;50.080;21.992;2023-12-20T02:11:36;32.50;;;21.90;;
65871;SDS011;52653;50.080;21.992;2023-12-20T02:14:29;33.10;;;22.50;;
65871;SDS011;52653;50.080;21.992;2023-12-20T02:17:22;31.30;;;22.10;;
65871;SDS011;52653;50.080;21.992;2023-12-20T02:20:17;31.20;;;20.80;;
65871;SDS011;52653;50.080;21.992;2023-12-20T02:23:10;30.70;;;20.70;;
65871;SDS011;52653;50.080;21.992;2023-12-20T02:26:03;33.40;;;21.90;;
65871;SDS011;52653;50.080;21.992;2023-12-20T02:28:57;29.40;;;20.60;;
65871;SDS011;52653;50.080;21.992;2023-12-20T02:31:52;33.90;;;21.60;;
65871;SDS011;52653;50.080;21.992;2023-12-20T02:34:46;33.00;;;21.70;;
65871;SDS011;52653;50.080;21.992;2023-12-20T02:37:41;32.00;;;21.60;;
65871;SDS011;52653;50.080;21.992;2023-12-20T02:40:34;34.60;;;21.60;;
65871;SDS011;52653;50.080;21.992;2023-12-20T02:43:27;32.00;;;21.70;;
65871;SDS011;52653;50.080;21.992;2023-12-20T02:46:20;30.80;;;21.20;;
65871;SDS011;52653;50.080;21.992;2023-12-20T02:49:14;30.70;;;20.70;;
65871;SDS011;52653;50.080;21.992;2023-12-20T02:52:05;31.30;;;20.80;;
65871;SDS011;52653;50.080;21.992;2023-12-20T02:54:51;32.80;;;22.30;;
65871;SDS011;52653;50.080;21.992;2023-12-20T02:57:34;30.20;;;20.40;;
65871;SDS011;52653;50.080;21.992;2023-12-20T03:00:47;32.90;;;21.30;;
65871;SDS011;52653;50.080;21.992;2023-12-20T03:03:41;30.50;;;21.50;;
65871;SDS011;52653;50.080;21.992;2023-12-20T03:06:34;30.30;;;21.20;;
65871;SDS011;52653;50.080;21.992;2023-12-20T03:09:26;31.90;;;21.70;;
65871;SDS011;52653;50.080;21.992;2023-12-20T03:12:36;31.80;;;21.40;;
65871;SDS011;52653;50.080;21.992;2023-12-20T03:15:29;31.40;;;20.90;;
65871;SDS011;52653;50.080;21.992;2023-12-20T03:18:22;31.30;;;21.40;;
65871;SDS011;52653;50.080;21.992;2023-12-20T03:21:17;32.90;;;22.40;;
65871;SDS011;52653;50.080;21.992;2023-12-20T03:24:21;30.70;;;20.40;;
65871;SDS011;52653;50.080;21.992;2023-12-20T03:27:14;30.30;;;21.00;;
65871;SDS011;52653;50.080;21.992;2023-12-20T03:30:09;31.60;;;20.30;;
65871;SDS011;52653;50.080;21.992;2023-12-20T03:32:55;32.50;;;21.60;;
65871;SDS011;52653;50.080;21.992;2023-12-20T03:35:48;31.20;;;21.70;;
65871;SDS011;52653;50.080;21.992;2023-12-20T03:38:41;32.90;;;21.50;;
65871;SDS011;52653;50.080;21.992;2023-12-20T03:41:34;32.70;;;21.40;;
65871;SDS011;52653;50.080;21.992;2023-12-20T03:44:27;31.10;;;21.50;;
65871;SDS011;52653;50.080;21.992;2023-12-20T03:47:40;33.60;;;21.80;;
65871;SDS011;52653;50.080;21.992;2023-12-20T03:50:37;31.00;;;21.10;;
65871;SDS011;52653;50.080;21.992;2023-12-20T03:53:30;30.40;;;21.10;;
65871;SDS011;52653;50.080;21.992;2023-12-20T03:56:24;29.70;;;20.70;;
65871;SDS011;52653;50.080;21.992;2023-12-20T03:59:07;30.60;;;20.80;;
65871;SDS011;52653;50.080;21.992;2023-12-20T04:02:00;28.70;;;20.70;;
65871;SDS011;52653;50.080;21.992;2023-12-20T04:04:54;29.60;;;20.70;;
65871;SDS011;52653;50.080;21.992;2023-12-20T04:07:47;29.40;;;20.40;;
65871;SDS011;52653;50.080;21.992;2023-12-20T04:10:40;30.70;;;21.70;;
65871;SDS011;52653;50.080;21.992;2023-12-20T04:13:33;32.30;;;21.80;;
65871;SDS011;52653;50.080;21.992;2023-12-20T04:16:26;32.40;;;21.20;;
65871;SDS011;52653;50.080;21.992;2023-12-20T04:19:10;30.20;;;22.10;;
65871;SDS011;52653;50.080;21.992;2023-12-20T04:22:03;32.10;;;21.40;;
65871;SDS011;52653;50.080;21.992;2023-12-20T04:24:56;31.10;;;20.90;;
65871;SDS011;52653;50.080;21.992;2023-12-20T04:27:48;29.70;;;20.10;;
65871;SDS011;52653;50.080;21.992;2023-12-20T04:30:42;31.90;;;21.40;;
65871;SDS011;52653;50.080;21.992;2023-12-20T04:33:35;31.80;;;21.20;;
65871;SDS011;52653;50.080;21.992;2023-12-20T04:36:27;30.80;;;20.30;;
65871;SDS011;52653;50.080;21.992;2023-12-20T04:39:21;30.00;;;20.10;;
65871;SDS011;52653;50.080;21.992;2023-12-20T04:42:06;32.40;;;21.40;;
65871;SDS011;52653;50.080;21.992;2023-12-20T04:45:04;30.70;;;19.80;;
65871;SDS011;52653;50.080;21.992;2023-12-20T04:47:57;30.50;;;19.70;;
65871;SDS011;52653;50.080;21.992;2023-12-20T04:50:51;28.60;;;18.50;;
65871;SDS011;52653;50.080;21.992;2023-12-20T04:53:44;30.80;;;20.70;;
65871;SDS011;52653;50.080;21.992;2023-12-20T04:56:40;30.30;;;19.90;;
65871;SDS011;52653;50.080;21.992;2023-12-20T04:59:33;30.20;;;20.50;;
65871;SDS011;52653;50.080;21.992;2023-12-20T05:02:25;30.00;;;20.10;;
65871;SDS011;52653;50.080;21.992;2023-12-20T05:05:18;28.80;;;19.60;;
65871;SDS011;52653;50.080;21.992;2023-12-20T05:08:12;29.70;;;19.10;;
65871;SDS011;52653;50.080;21.992;2023-12-20T05:11:06;29.60;;;19.50;;
65871;SDS011;52653;50.080;21.992;2023-12-20T05:13:59;29.80;;;20.40;;
65871;SDS011;52653;50.080;21.992;2023-12-20T05:16:52;29.00;;;19.60;;
65871;SDS011;52653;50.080;21.992;2023-12-20T05:19:47;29.70;;;19.30;;
65871;SDS011;52653;50.080;21.992;2023-12-20T05:22:40;32.20;;;19.80;;
65871;SDS011;52653;50.080;21.992;2023-12-20T05:25:34;27.80;;;18.10;;
65871;SDS011;52653;50.080;21.992;2023-12-20T05:28:27;28.80;;;18.90;;
65871;SDS011;52653;50.080;21.992;2023-12-20T05:31:20;29.80;;;19.90;;
65871;SDS011;52653;50.080;21.992;2023-12-20T05:34:13;29.20;;;19.40;;
65871;SDS011;52653;50.080;21.992;2023-12-20T05:36:59;27.30;;;18.70;;
65871;SDS011;52653;50.080;21.992;2023-12-20T05:39:43;29.00;;;19.20;;
65871;SDS011;52653;50.080;21.992;2023-12-20T05:42:29;26.20;;;17.70;;
65871;SDS011;52653;50.080;21.992;2023-12-20T05:45:24;28.30;;;19.20;;
65871;SDS011;52653;50.080;21.992;2023-12-20T05:48:17;26.40;;;18.70;;
65871;SDS011;52653;50.080;21.992;2023-12-20T05:51:04;26.20;;;18.90;;
65871;SDS011;52653;50.080;21.992;2023-12-20T05:54:00;28.10;;;19.10;;
65871;SDS011;52653;50.080;21.992;2023-12-20T05:56:53;29.30;;;19.10;;
65871;SDS011;52653;50.080;21.992;2023-12-20T05:59:45;27.40;;;18.50;;
65871;SDS011;52653;50.080;21.992;2023-12-20T06:02:38;26.30;;;17.20;;
65871;SDS011;52653;50.080;21.992;2023-12-20T06:05:31;27.70;;;18.80;;
65871;SDS011;52653;50.080;21.992;2023-12-20T06:08:17;26.80;;;18.40;;
65871;SDS011;52653;50.080;21.992;2023-12-20T06:11:04;27.70;;;17.90;;
65871;SDS011;52653;50.080;21.992;2023-12-20T06:13:49;26.50;;;16.50;;
65871;SDS011;52653;50.080;21.992;2023-12-20T06:16:42;27.40;;;18.20;;
65871;SDS011;52653;50.080;21.992;2023-12-20T06:19:34;24.40;;;17.20;;
65871;SDS011;52653;50.080;21.992;2023-12-20T06:22:27;26.00;;;18.00;;
65871;SDS011;52653;50.080;21.992;2023-12-20T06:25:05;26.80;;;17.10;;
65871;SDS011;52653;50.080;21.992;2023-12-20T06:27:59;25.50;;;17.80;;
65871;SDS011;52653;50.080;21.992;2023-12-20T06:30:53;24.40;;;16.90;;
65871;SDS011;52653;50.080;21.992;2023-12-20T06:33:47;27.20;;;17.60;;
65871;SDS011;52653;50.080;21.992;2023-12-20T06:36:48;24.50;;;16.80;;
65871;SDS011;52653;50.080;21.992;2023-12-20T06:39:41;25.60;;;16.70;;
65871;SDS011;52653;50.080;21.992;2023-12-20T06:42:26;25.30;;;17.10;;
65871;SDS011;52653;50.080;21.992;2023-12-20T06:45:16;22.90;;;15.80;;
65871;SDS011;52653;50.080;21.992;2023-12-20T06:48:08;25.10;;;16.90;;
65871;SDS011;52653;50.080;21.992;2023-12-20T06:51:03;24.90;;;16.90;;
65871;SDS011;52653;50.080;21.992;2023-12-20T06:53:56;23.80;;;16.30;;
65871;SDS011;52653;50.080;21.992;2023-12-20T06:56:49;22.40;;;15.90;;
65871;SDS011;52653;50.080;21.992;2023-12-20T06:59:26;24.80;;;16.20;;
65871;SDS011;52653;50.080;21.992;2023-12-20T07:02:20;21.30;;;15.60;;
65871;SDS011;52653;50.080;21.992;2023-12-20T07:05:12;24.10;;;15.40;;
65871;SDS011;52653;50.080;21.992;2023-12-20T07:08:09;26.00;;;16.30;;
65871;SDS011;52653;50.080;21.992;2023-12-20T07:11:05;25.30;;;16.40;;
65871;SDS011;52653;50.080;21.992;2023-12-20T07:13:46;25.10;;;16.60;;
65871;SDS011;52653;50.080;21.992;2023-12-20T07:16:40;24.60;;;16.30;;
65871;SDS011;52653;50.080;21.992;2023-12-20T07:19:33;24.50;;;17.50;;
65871;SDS011;52653;50.080;21.992;2023-12-20T07:22:18;26.00;;;18.70;;
65871;SDS011;52653;50.080;21.992;2023-12-20T07:25:11;32.00;;;21.80;;
65871;SDS011;52653;50.080;21.992;2023-12-20T07:27:57;34.10;;;26.00;;
65871;SDS011;52653;50.080;21.992;2023-12-20T07:30:52;30.20;;;21.20;;
65871;SDS011;52653;50.080;21.992;2023-12-20T07:33:45;26.90;;;19.80;;
65871;SDS011;52653;50.080;21.992;2023-12-20T07:36:36;23.60;;;17.60;;
65871;SDS011;52653;50.080;21.992;2023-12-20T07:39:29;22.90;;;16.30;;
65871;SDS011;52653;50.080;21.992;2023-12-20T07:42:22;24.80;;;17.70;;
65871;SDS011;52653;50.080;21.992;2023-12-20T07:45:15;25.30;;;17.70;;
65871;SDS011;52653;50.080;21.992;2023-12-20T07:48:08;24.80;;;17.00;;
65871;SDS011;52653;50.080;21.992;2023-12-20T07:50:55;24.90;;;16.80;;
65871;SDS011;52653;50.080;21.992;2023-12-20T07:53:48;28.30;;;20.30;;
65871;SDS011;52653;50.080;21.992;2023-12-20T07:56:40;28.30;;;19.20;;
65871;SDS011;52653;50.080;21.992;2023-12-20T07:59:36;23.50;;;16.80;;
65871;SDS011;52653;50.080;21.992;2023-12-20T08:02:29;27.50;;;18.30;;
65871;SDS011;52653;50.080;21.992;2023-12-20T08:05:23;24.80;;;18.30;;
65871;SDS011;52653;50.080;21.992;2023-12-20T08:08:10;25.90;;;17.40;;
65871;SDS011;52653;50.080;21.992;2023-12-20T08:10:53;25.00;;;17.00;;
65871;SDS011;52653;50.080;21.992;2023-12-20T08:13:40;26.20;;;19.00;;
65871;SDS011;52653;50.080;21.992;2023-12-20T08:16:33;30.70;;;20.40;;
65871;SDS011;52653;50.080;21.992;2023-12-20T08:19:29;37.20;;;26.10;;
65871;SDS011;52653;50.080;21.992;2023-12-20T08:22:25;28.70;;;21.60;;
65871;SDS011;52653;50.080;21.992;2023-12-20T08:25:10;28.20;;;20.40;;
65871;SDS011;52653;50.080;21.992;2023-12-20T08:28:05;31.00;;;22.90;;
65871;SDS011;52653;50.080;21.992;2023-12-20T08:30:44;30.50;;;20.90;;
65871;SDS011;52653;50.080;21.992;2023-12-20T08:33:30;30.50;;;20.40;;
65871;SDS011;52653;50.080;21.992;2023-12-20T08:36:21;25.10;;;18.40;;
65871;SDS011;52653;50.080;21.992;2023-12-20T08:39:08;26.10;;;18.60;;
65871;SDS011;52653;50.080;21.992;2023-12-20T08:41:55;24.40;;;17.90;;
65871;SDS011;52653;50.080;21.992;2023-12-20T08:44:42;26.00;;;17.00;;
65871;SDS011;52653;50.080;21.992;2023-12-20T08:47:37;22.00;;;16.40;;
65871;SDS011;52653;50.080;21.992;2023-12-20T08:50:13;24.40;;;18.10;;
65871;SDS011;52653;50.080;21.992;2023-12-20T08:52:50;26.90;;;18.40;;
65871;SDS011;52653;50.080;21.992;2023-12-20T08:55:43;23.70;;;16.90;;
65871;SDS011;52653;50.080;21.992;2023-12-20T08:58:38;24.80;;;16.80;;
65871;SDS011;52653;50.080;21.992;2023-12-20T09:01:31;24.30;;;16.10;;
65871;SDS011;52653;50.080;21.992;2023-12-20T09:04:17;23.70;;;16.10;;
65871;SDS011;52653;50.080;21.992;2023-12-20T09:07:21;26.20;;;17.00;;
65871;SDS011;52653;50.080;21.992;2023-12-20T09:10:10;24.40;;;16.80;;
65871;SDS011;52653;50.080;21.992;2023-12-20T09:13:05;24.60;;;17.00;;
65871;SDS011;52653;50.080;21.992;2023-12-20T09:15:53;24.30;;;17.40;;
65871;SDS011;52653;50.080;21.992;2023-12-20T09:18:47;24.70;;;17.20;;
65871;SDS011;52653;50.080;21.992;2023-12-20T09:21:50;22.50;;;17.00;;
65871;SDS011;52653;50.080;21.992;2023-12-20T09:24:46;24.10;;;17.80;;
65871;SDS011;52653;50.080;21.992;2023-12-20T09:27:39;24.20;;;16.70;;
65871;SDS011;52653;50.080;21.992;2023-12-20T09:30:32;23.50;;;17.60;;
65871;SDS011;52653;50.080;21.992;2023-12-20T09:33:22;25.30;;;18.10;;
65871;SDS011;52653;50.080;21.992;2023-12-20T09:36:06;27.90;;;19.40;;
65871;SDS011;52653;50.080;21.992;2023-12-20T09:38:59;22.80;;;16.90;;
65871;SDS011;52653;50.080;21.992;2023-12-20T09:41:56;22.70;;;16.80;;
65871;SDS011;52653;50.080;21.992;2023-12-20T09:44:55;24.90;;;18.20;;
65871;SDS011;52653;50.080;21.992;2023-12-20T09:50:45;25.60;;;18.80;;
65871;SDS011;52653;50.080;21.992;2023-12-20T09:53:42;27.00;;;18.60;;
65871;SDS011;52653;50.080;21.992;2023-12-20T09:56:37;27.10;;;18.10;;
65871;SDS011;52653;50.080;21.992;2023-12-20T09:59:31;25.00;;;19.00;;
65871;SDS011;52653;50.080;21.992;2023-12-20T10:02:24;24.30;;;17.50;;
65871;SDS011;52653;50.080;21.992;2023-12-20T10:05:10;25.30;;;17.20;;
65871;SDS011;52653;50.080;21.992;2023-12-20T10:08:10;25.70;;;18.40;;
65871;SDS011;52653;50.080;21.992;2023-12-20T10:11:02;25.30;;;18.40;;
65871;SDS011;52653;50.080;21.992;2023-12-20T10:13:59;26.70;;;18.80;;
65871;SDS011;52653;50.080;21.992;2023-12-20T10:16:58;26.80;;;19.20;;
65871;SDS011;52653;50.080;21.992;2023-12-20T10:19:54;27.10;;;20.20;;
65871;SDS011;52653;50.080;21.992;2023-12-20T10:22:51;28.00;;;20.30;;
65871;SDS011;52653;50.080;21.992;2023-12-20T10:25:37;28.20;;;20.10;;
65871;SDS011;52653;50.080;21.992;2023-12-20T10:28:34;30.60;;;21.20;;
65871;SDS011;52653;50.080;21.992;2023-12-20T10:31:28;28.00;;;19.30;;
65871;SDS011;52653;50.080;21.992;2023-12-20T10:34:21;26.90;;;20.20;;
65871;SDS011;52653;50.080;21.992;2023-12-20T10:37:13;30.80;;;21.20;;
65871;SDS011;52653;50.080;21.992;2023-12-20T10:40:07;28.70;;;20.70;;
65871;SDS011;52653;50.080;21.992;2023-12-20T10:43:00;28.00;;;20.50;;
65871;SDS011;52653;50.080;21.992;2023-12-20T10:45:57;30.30;;;22.30;;
65871;SDS011;52653;50.080;21.992;2023-12-20T10:48:51;29.20;;;21.00;;
65871;SDS011;52653;50.080;21.992;2023-12-20T10:51:35;33.40;;;22.90;;
65871;SDS011;52653;50.080;21.992;2023-12-20T10:54:22;33.10;;;23.00;;
65871;SDS011;52653;50.080;21.992;2023-12-20T10:57:19;31.60;;;23.30;;
65871;SDS011;52653;50.080;21.992;2023-12-20T11:00:15;32.30;;;22.80;;
65871;SDS011;52653;50.080;21.992;2023-12-20T11:03:08;30.30;;;22.50;;
65871;SDS011;52653;50.080;21.992;2023-12-20T11:06:03;29.40;;;21.10;;
65871;SDS011;52653;50.080;21.992;2023-12-20T11:09:10;24.30;;;18.00;;
65871;SDS011;52653;50.080;21.992;2023-12-20T11:12:09;27.00;;;18.20;;
65871;SDS011;52653;50.080;21.992;2023-12-20T11:14:49;25.20;;;18.40;;
65871;SDS011;52653;50.080;21.992;2023-12-20T11:17:45;23.50;;;17.10;;
65871;SDS011;52653;50.080;21.992;2023-12-20T11:20:45;24.40;;;18.30;;
65871;SDS011;52653;50.080;21.992;2023-12-20T11:23:39;25.60;;;18.20;;
65871;SDS011;52653;50.080;21.992;2023-12-20T11:26:35;24.90;;;16.90;;
65871;SDS011;52653;50.080;21.992;2023-12-20T11:29:31;23.90;;;17.50;;
65871;SDS011;52653;50.080;21.992;2023-12-20T11:32:33;23.90;;;17.40;;
65871;SDS011;52653;50.080;21.992;2023-12-20T11:35:29;24.80;;;17.90;;
65871;SDS011;52653;50.080;21.992;2023-12-20T11:38:15;28.30;;;20.20;;
65871;SDS011;52653;50.080;21.992;2023-12-20T11:41:08;28.10;;;19.80;;
65871;SDS011;52653;50.080;21.992;2023-12-20T11:44:03;23.70;;;17.70;;
65871;SDS011;52653;50.080;21.992;2023-12-20T11:47:00;26.30;;;18.00;;
65871;SDS011;52653;50.080;21.992;2023-12-20T11:49:45;26.00;;;18.10;;
65871;SDS011;52653;50.080;21.992;2023-12-20T11:52:40;27.00;;;18.70;;
65871;SDS011;52653;50.080;21.992;2023-12-20T11:55:33;28.00;;;18.80;;
65871;SDS011;52653;50.080;21.992;2023-12-20T11:58:27;25.80;;;18.70;;
65871;SDS011;52653;50.080;21.992;2023-12-20T12:01:21;31.70;;;21.70;;
65871;SDS011;52653;50.080;21.992;2023-12-20T12:04:14;26.20;;;19.30;;
65871;SDS011;52653;50.080;21.992;2023-12-20T12:06:58;27.00;;;19.90;;
65871;SDS011;52653;50.080;21.992;2023-12-20T12:09:50;25.40;;;18.60;;
65871;SDS011;52653;50.080;21.992;2023-12-20T12:12:43;34.20;;;24.40;;
65871;SDS011;52653;50.080;21.992;2023-12-20T12:15:37;31.40;;;23.20;;
65871;SDS011;52653;50.080;21.992;2023-12-20T12:18:32;31.80;;;24.30;;
65871;SDS011;52653;50.080;21.992;2023-12-20T12:21:20;32.30;;;24.90;;
65871;SDS011;52653;50.080;21.992;2023-12-20T12:24:21;33.40;;;24.70;;
65871;SDS011;52653;50.080;21.992;2023-12-20T12:27:14;27.80;;;21.10;;
65871;SDS011;52653;50.080;21.992;2023-12-20T12:30:01;31.30;;;22.70;;
65871;SDS011;52653;50.080;21.992;2023-12-20T12:32:57;28.10;;;21.80;;
65871;SDS011;52653;50.080;21.992;2023-12-20T12:35:50;33.10;;;24.00;;
65871;SDS011;52653;50.080;21.992;2023-12-20T12:38:46;33.10;;;23.10;;
65871;SDS011;52653;50.080;21.992;2023-12-20T12:41:39;35.90;;;24.60;;
65871;SDS011;52653;50.080;21.992;2023-12-20T12:44:30;34.90;;;26.00;;
65871;SDS011;52653;50.080;21.992;2023-12-20T12:47:24;35.10;;;25.10;;
65871;SDS011;52653;50.080;21.992;2023-12-20T12:50:08;37.50;;;26.00;;
65871;SDS011;52653;50.080;21.992;2023-12-20T12:53:01;39.90;;;27.70;;
65871;SDS011;52653;50.080;21.992;2023-12-20T12:55:54;35.20;;;25.10;;
65871;SDS011;52653;50.080;21.992;2023-12-20T12:58:47;39.50;;;27.80;;
65871;SDS011;52653;50.080;21.992;2023-12-20T13:01:39;51.70;;;34.60;;
65871;SDS011;52653;50.080;21.992;2023-12-20T13:04:22;50.70;;;33.20;;
65871;SDS011;52653;50.080;21.992;2023-12-20T13:07:03;45.50;;;32.00;;
65871;SDS011;52653;50.080;21.992;2023-12-20T13:09:57;45.80;;;33.30;;
65871;SDS011;52653;50.080;21.992;2023-12-20T13:12:50;49.20;;;35.30;;
65871;SDS011;52653;50.080;21.992;2023-12-20T13:15:42;43.30;;;30.40;;
65871;SDS011;52653;50.080;21.992;2023-12-20T13:18:33;37.00;;;26.30;;
65871;SDS011;52653;50.080;21.992;2023-12-20T13:21:24;32.70;;;23.70;;
65871;SDS011;52653;50.080;21.992;2023-12-20T13:24:08;37.70;;;27.90;;
65871;SDS011;52653;50.080;21.992;2023-12-20T13:26:54;38.50;;;26.60;;
65871;SDS011;52653;50.080;21.992;2023-12-20T13:29:47;39.90;;;28.70;;
65871;SDS011;52653;50.080;21.992;2023-12-20T13:32:40;56.40;;;38.10;;
65871;SDS011;52653;50.080;21.992;2023-12-20T13:35:34;40.20;;;28.50;;
65871;SDS011;52653;50.080;21.992;2023-12-20T13:38:08;34.00;;;24.00;;
65871;SDS011;52653;50.080;21.992;2023-12-20T13:40:54;41.60;;;31.30;;
65871;SDS011;52653;50.080;21.992;2023-12-20T13:43:40;41.40;;;31.00;;
65871;SDS011;52653;50.080;21.992;2023-12-20T13:46:35;39.80;;;28.80;;
65871;SDS011;52653;50.080;21.992;2023-12-20T13:49:31;44.90;;;31.70;;
65871;SDS011;52653;50.080;21.992;2023-12-20T13:52:18;53.60;;;35.30;;
65871;SDS011;52653;50.080;21.992;2023-12-20T13:55:10;61.30;;;40.50;;
65871;SDS011;52653;50.080;21.992;2023-12-20T13:58:02;45.10;;;31.80;;
65871;SDS011;52653;50.080;21.992;2023-12-20T14:00:55;45.70;;;30.30;;
65871;SDS011;52653;50.080;21.992;2023-12-20T14:03:51;42.30;;;29.70;;
65871;SDS011;52653;50.080;21.992;2023-12-20T14:06:36;41.50;;;29.80;;
65871;SDS011;52653;50.080;21.992;2023-12-20T14:09:30;39.20;;;29.00;;
65871;SDS011;52653;50.080;21.992;2023-12-20T14:12:05;37.00;;;28.50;;
65871;SDS011;52653;50.080;21.992;2023-12-20T14:15:00;42.80;;;31.20;;
65871;SDS011;52653;50.080;21.992;2023-12-20T14:17:53;37.40;;;28.50;;
65871;SDS011;52653;50.080;21.992;2023-12-20T14:20:40;37.60;;;29.00;;
65871;SDS011;52653;50.080;21.992;2023-12-20T14:23:19;34.80;;;26.70;;
65871;SDS011;52653;50.080;21.992;2023-12-20T14:26:04;34.10;;;26.80;;
65871;SDS011;52653;50.080;21.992;2023-12-20T14:28:57;35.50;;;27.30;;
65871;SDS011;52653;50.080;21.992;2023-12-20T14:31:30;34.30;;;26.50;;
65871;SDS011;52653;50.080;21.992;2023-12-20T14:34:21;39.80;;;28.00;;
65871;SDS011;52653;50.080;21.992;2023-12-20T14:37:07;37.30;;;27.00;;
65871;SDS011;52653;50.080;21.992;2023-12-20T14:39:40;36.60;;;25.40;;
65871;SDS011;52653;50.080;21.992;2023-12-20T14:42:20;39.80;;;29.40;;
65871;SDS011;52653;50.080;21.992;2023-12-20T14:44:59;39.90;;;30.60;;
65871;SDS011;52653;50.080;21.992;2023-12-20T14:47:37;45.90;;;32.90;;
65871;SDS011;52653;50.080;21.992;2023-12-20T14:50:23;39.40;;;30.80;;
65871;SDS011;52653;50.080;21.992;2023-12-20T14:53:18;46.90;;;34.20;;
65871;SDS011;52653;50.080;21.992;2023-12-20T14:56:02;46.70;;;33.80;;
65871;SDS011;52653;50.080;21.992;2023-12-20T14:58:45;38.00;;;28.40;;
65871;SDS011;52653;50.080;21.992;2023-12-20T15:01:38;38.10;;;28.30;;
65871;SDS011;52653;50.080;21.992;2023-12-20T15:04:32;41.00;;;29.40;;
65871;SDS011;52653;50.080;21.992;2023-12-20T15:07:23;41.80;;;30.60;;
65871;SDS011;52653;50.080;21.992;2023-12-20T15:09:59;77.00;;;44.70;;
65871;SDS011;52653;50.080;21.992;2023-12-20T15:12:47;79.40;;;48.90;;
65871;SDS011;52653;50.080;21.992;2023-12-20T15:15:41;50.80;;;37.20;;
65871;SDS011;52653;50.080;21.992;2023-12-20T15:18:21;42.20;;;33.50;;
65871;SDS011;52653;50.080;21.992;2023-12-20T15:21:09;38.60;;;31.20;;
65871;SDS011;52653;50.080;21.992;2023-12-20T15:24:05;49.50;;;36.90;;
65871;SDS011;52653;50.080;21.992;2023-12-20T15:26:55;72.20;;;52.70;;
65871;SDS011;52653;50.080;21.992;2023-12-20T15:29:30;36.30;;;27.00;;
65871;SDS011;52653;50.080;21.992;2023-12-20T15:32:23;26.00;;;19.50;;
65871;SDS011;52653;50.080;21.992;2023-12-20T15:35:10;33.30;;;26.60;;
65871;SDS011;52653;50.080;21.992;2023-12-20T15:37:52;27.40;;;22.10;;
65871;SDS011;52653;50.080;21.992;2023-12-20T15:40:48;20.80;;;17.40;;
65871;SDS011;52653;50.080;21.992;2023-12-20T15:43:40;19.30;;;14.30;;
65871;SDS011;52653;50.080;21.992;2023-12-20T15:46:33;18.30;;;14.50;;
65871;SDS011;52653;50.080;21.992;2023-12-20T15:49:09;19.10;;;14.30;;
65871;SDS011;52653;50.080;21.992;2023-12-20T15:51:47;21.70;;;15.80;;
65871;SDS011;52653;50.080;21.992;2023-12-20T15:54:36;24.30;;;15.70;;
65871;SDS011;52653;50.080;21.992;2023-12-20T15:57:25;24.30;;;17.20;;
65871;SDS011;52653;50.080;21.992;2023-12-20T16:00:34;23.30;;;15.80;;
65871;SDS011;52653;50.080;21.992;2023-12-20T16:03:19;18.30;;;14.70;;
65871;SDS011;52653;50.080;21.992;2023-12-20T16:06:08;18.60;;;14.90;;
65871;SDS011;52653;50.080;21.992;2023-12-20T16:09:03;19.50;;;14.30;;
65871;SDS011;52653;50.080;21.992;2023-12-20T16:11:42;19.10;;;15.20;;
65871;SDS011;52653;50.080;21.992;2023-12-20T16:14:26;21.80;;;15.80;;
65871;SDS011;52653;50.080;21.992;2023-12-20T16:17:12;21.30;;;15.60;;
65871;SDS011;52653;50.080;21.992;2023-12-20T16:19:48;21.00;;;15.70;;
65871;SDS011;52653;50.080;21.992;2023-12-20T16:22:41;20.00;;;14.80;;
65871;SDS011;52653;50.080;21.992;2023-12-20T16:25:34;20.20;;;14.80;;
65871;SDS011;52653;50.080;21.992;2023-12-20T16:28:20;23.90;;;16.00;;
65871;SDS011;52653;50.080;21.992;2023-12-20T16:31:02;21.00;;;16.00;;
65871;SDS011;52653;50.080;21.992;2023-12-20T16:33:48;24.60;;;17.40;;
65871;SDS011;52653;50.080;21.992;2023-12-20T16:36:50;23.00;;;15.50;;